AFR848 LFPG-FGSL
Flight info
| Callsign | AFR848 |
|---|---|
| Flight time | N/A |
| Altitude | 41000 |
| Route | AGOPA6H AGOPA DCT ARKIP DCT ARMAL DCT ARTAX DCT BEBIX DCT LMG DCT UVELI DCT OSMOB DCT ARVID DCT PPN DCT NOLSA DCT ALEPO DCT VASUM N10 BAN DCT GOTOR DCT KAMPO DCT MONTO DCT MOLIN DCT VJF N10 LINTO UN10 BARIS UB11 PELAX UN869 MABAP DCT BULIS/N0479F410 UR981 BAKAB UA603 LIPET DCT BATIA DCT TENTU DCT POT NAPAP1D |
| Aircraft | A359/H-SDE2E3GHIJ3J4J5LM1ORWXY/LB1D1 |
Departure
| Time | N/A |
|---|---|
| Airport | Charles de Gaulle International Airport (LFPG) |
Arrival
| Time | 2026-04-30 03:47 |
|---|---|
| Airport | Malabo International Airport (FGSL) |
| Time | Latitude | Longitude | Altitude | Speed | Heading |
|---|---|---|---|---|---|
| 2026-04-30 03:33 | 4.11470 | 8.23996 | 13984 ft | 323 kts | 123° |
| 2026-04-30 03:33 | 4.10162 | 8.25807 | 13544 ft | 319 kts | 123° |
| 2026-04-30 03:33 | 4.08876 | 8.27588 | 13095 ft | 314 kts | 123° |
| 2026-04-30 03:34 | 4.07601 | 8.29353 | 12649 ft | 309 kts | 123° |
| 2026-04-30 03:34 | 4.06353 | 8.31081 | 12225 ft | 304 kts | 123° |
| 2026-04-30 03:34 | 4.05120 | 8.32789 | 11811 ft | 301 kts | 123° |
| 2026-04-30 03:34 | 4.03891 | 8.34491 | 11401 ft | 300 kts | 123° |
| 2026-04-30 03:35 | 4.02689 | 8.36156 | 10996 ft | 298 kts | 123° |
| 2026-04-30 03:35 | 4.01639 | 8.37904 | 10713 ft | 287 kts | 111° |
| 2026-04-30 03:35 | 4.01156 | 8.39784 | 10566 ft | 271 kts | 96° |
| 2026-04-30 03:35 | 4.00969 | 8.41612 | 10439 ft | 259 kts | 94° |
| 2026-04-30 03:36 | 4.00808 | 8.43380 | 10272 ft | 251 kts | 95° |
| 2026-04-30 03:36 | 4.00646 | 8.45119 | 10021 ft | 250 kts | 95° |
| 2026-04-30 03:36 | 4.00483 | 8.46852 | 9726 ft | 255 kts | 95° |
| 2026-04-30 03:36 | 4.00310 | 8.48670 | 9536 ft | 267 kts | 95° |
| 2026-04-30 03:37 | 4.00132 | 8.50527 | 9385 ft | 265 kts | 95° |
| 2026-04-30 03:37 | 3.99955 | 8.52374 | 8860 ft | 267 kts | 95° |
| 2026-04-30 03:37 | 3.99777 | 8.54225 | 8424 ft | 267 kts | 95° |
| 2026-04-30 03:37 | 3.99598 | 8.56090 | 8068 ft | 268 kts | 95° |
| 2026-04-30 03:38 | 3.99419 | 8.57941 | 7733 ft | 268 kts | 95° |
| 2026-04-30 03:38 | 3.99242 | 8.59782 | 7411 ft | 269 kts | 95° |
| 2026-04-30 03:38 | 3.99062 | 8.61645 | 7075 ft | 269 kts | 95° |
| 2026-04-30 03:38 | 3.98883 | 8.63505 | 6740 ft | 269 kts | 95° |
| 2026-04-30 03:39 | 3.98703 | 8.65375 | 6405 ft | 269 kts | 95° |
| 2026-04-30 03:39 | 3.98524 | 8.67231 | 6053 ft | 269 kts | 95° |
| 2026-04-30 03:39 | 3.98343 | 8.69109 | 5704 ft | 269 kts | 96° |
| 2026-04-30 03:39 | 3.98163 | 8.70975 | 5366 ft | 269 kts | 96° |
| 2026-04-30 03:40 | 3.97983 | 8.72841 | 5032 ft | 269 kts | 96° |
| 2026-04-30 03:40 | 3.97803 | 8.74704 | 4687 ft | 269 kts | 96° |
| 2026-04-30 03:40 | 3.97625 | 8.76547 | 4353 ft | 268 kts | 96° |
| 2026-04-30 03:40 | 3.97391 | 8.78397 | 4018 ft | 267 kts | 103° |
| 2026-04-30 03:41 | 3.96603 | 8.80052 | 3759 ft | 260 kts | 128° |
| 2026-04-30 03:41 | 3.95430 | 8.81384 | 3567 ft | 250 kts | 133° |
| 2026-04-30 03:41 | 3.94273 | 8.82644 | 3415 ft | 239 kts | 132° |
| 2026-04-30 03:41 | 3.93102 | 8.83737 | 3280 ft | 229 kts | 146° |
| 2026-04-30 03:42 | 3.91641 | 8.84135 | 3181 ft | 215 kts | 185° |
| 2026-04-30 03:42 | 3.90261 | 8.83777 | 3064 ft | 195 kts | 203° |
| 2026-04-30 03:42 | 3.89143 | 8.83051 | 3061 ft | 191 kts | 220° |
| 2026-04-30 03:42 | 3.88151 | 8.82168 | 3021 ft | 187 kts | 221° |
| 2026-04-30 03:43 | 3.87205 | 8.81345 | 2824 ft | 173 kts | 221° |
| 2026-04-30 03:43 | 3.86315 | 8.80548 | 2595 ft | 171 kts | 221° |
| 2026-04-30 03:43 | 3.85439 | 8.79761 | 2356 ft | 170 kts | 221° |
| 2026-04-30 03:43 | 3.84557 | 8.78972 | 2138 ft | 170 kts | 221° |
| 2026-04-30 03:44 | 3.83684 | 8.78189 | 1919 ft | 169 kts | 221° |
| 2026-04-30 03:44 | 3.82809 | 8.77403 | 1689 ft | 168 kts | 221° |
| 2026-04-30 03:44 | 3.81950 | 8.76632 | 1474 ft | 161 kts | 221° |
| 2026-04-30 03:44 | 3.81145 | 8.75910 | 1268 ft | 150 kts | 221° |
| 2026-04-30 03:45 | 3.80390 | 8.75232 | 1079 ft | 141 kts | 221° |
| 2026-04-30 03:45 | 3.79678 | 8.74592 | 923 ft | 137 kts | 222° |
| 2026-04-30 03:45 | 3.78966 | 8.73951 | 740 ft | 137 kts | 222° |
| 2026-04-30 03:45 | 3.78258 | 8.73314 | 550 ft | 137 kts | 222° |
| 2026-04-30 03:46 | 3.77551 | 8.72681 | 377 ft | 136 kts | 221° |
| 2026-04-30 03:46 | 3.76848 | 8.72050 | 215 ft | 137 kts | 221° |
| 2026-04-30 03:46 | 3.76131 | 8.71408 | 51 ft | 129 kts | 222° |
| 2026-04-30 03:46 | 3.75577 | 8.70910 | 43 ft | 89 kts | 221° |
| 2026-04-30 03:47 | 3.75220 | 8.70594 | 59 ft | 47 kts | 221° |
| 2026-04-30 03:47 | 3.75009 | 8.70409 | 60 ft | 33 kts | 221° |
| 2026-04-30 03:47 | 3.74976 | 8.70388 | 61 ft | 5 kts | 202° |
| 2026-04-30 03:47 | 3.74927 | 8.70371 | 59 ft | 11 kts | 198° |
| 2026-04-30 03:48 | 3.74826 | 8.70341 | 61 ft | 18 kts | 193° |
| 2026-04-30 03:48 | 3.74685 | 8.70327 | 47 ft | 16 kts | 158° |
| 2026-04-30 03:48 | 3.74673 | 8.70353 | 43 ft | 2 kts | 56° |
| 2026-04-30 03:48 | 3.74699 | 8.70375 | 44 ft | 9 kts | 40° |
| 2026-04-30 03:49 | 3.74763 | 8.70427 | 44 ft | 15 kts | 38° |
| 2026-04-30 03:49 | 3.74858 | 8.70509 | 41 ft | 21 kts | 42° |
| 2026-04-30 03:49 | 3.74980 | 8.70618 | 43 ft | 26 kts | 42° |
| 2026-04-30 03:49 | 3.75125 | 8.70749 | 43 ft | 30 kts | 42° |
| 2026-04-30 03:50 | 3.75220 | 8.70834 | 43 ft | 0 kts | 41° |
| 2026-04-30 03:50 | 3.75238 | 8.70850 | 39 ft | 7 kts | 41° |
| 2026-04-30 03:50 | 3.75260 | 8.70877 | 39 ft | 1 kts | 83° |
| 2026-04-30 03:50 | 3.75254 | 8.70886 | 39 ft | 3 kts | 121° |
| 2026-04-30 03:51 | 3.75226 | 8.70925 | 42 ft | 8 kts | 110° |
| 2026-04-30 03:51 | 3.75225 | 8.70934 | 44 ft | 9 kts | 94° |
| 2026-04-30 03:51 | 3.75224 | 8.70949 | 46 ft | 11 kts | 92° |
| 2026-04-30 03:52 | 3.75257 | 8.71012 | 43 ft | 0 kts | 44° |
| 2026-04-30 03:52 | 3.75261 | 8.71016 | 40 ft | 3 kts | 44° |
| 2026-04-30 03:52 | 3.75286 | 8.71052 | 39 ft | 9 kts | 76° |
| 2026-04-30 03:52 | 3.75266 | 8.71095 | 41 ft | 0 kts | 130° |
| 2026-04-30 03:54 | 3.75248 | 8.71114 | 39 ft | 0 kts | 134° |
| 2026-04-30 03:55 | 3.75237 | 8.71125 | 41 ft | 0 kts | 134° |
| 2026-04-30 03:55 | 3.75251 | 8.71111 | 39 ft | 0 kts | 134° |